createdAt,value
2023-03-26T00:01:16.329Z,100495.63
2023-03-26T00:03:47.168Z,100490.41
2023-03-26T00:06:15.934Z,100496.53
2023-03-26T00:08:44.977Z,100499.19
2023-03-26T00:11:14.693Z,100499.22
2023-03-26T00:13:45.957Z,100489.53
2023-03-26T00:16:17.727Z,100500.97
2023-03-26T00:18:44.936Z,100505.47
2023-03-26T00:21:14.095Z,100510.00
2023-03-26T00:23:41.440Z,100511.66
2023-03-26T00:26:14.155Z,100508.13
2023-03-26T00:28:41.769Z,100509.06
2023-03-26T00:31:11.424Z,100517.09
2023-03-26T00:33:38.691Z,100517.06
2023-03-26T00:36:09.870Z,100522.44
2023-03-26T00:38:39.103Z,100516.16
2023-03-26T00:41:17.815Z,100523.31
2023-03-26T00:43:48.872Z,100524.19
2023-03-26T00:46:15.896Z,100517.09
2023-03-26T00:48:45.857Z,100518.94
2023-03-26T00:51:15.568Z,100525.09
2023-03-26T00:53:43.725Z,100523.47
2023-03-26T00:56:10.690Z,100521.59
2023-03-26T00:58:37.433Z,100520.72
2023-03-26T01:01:07.407Z,100526.94
2023-03-26T01:03:35.761Z,100523.41
2023-03-26T01:06:04.844Z,100524.38
2023-03-26T01:08:34.333Z,100519.03
2023-03-26T01:11:13.922Z,100519.06
2023-03-26T01:14:23.510Z,100512.81
2023-03-26T01:16:53.262Z,100518.19
2023-03-26T01:20:13.535Z,100518.25
2023-03-26T01:22:44.196Z,100519.16
2023-03-26T01:25:10.820Z,100520.03
2023-03-26T01:27:42.496Z,100529.84
2023-03-26T01:30:17.701Z,100513.84
2023-03-26T01:32:47.584Z,100529.88
2023-03-26T01:35:23.167Z,100520.97
2023-03-26T01:38:10.892Z,100514.78
2023-03-26T01:41:09.740Z,100520.13
2023-03-26T01:43:55.555Z,100526.34
2023-03-26T01:46:23.983Z,100521.03
2023-03-26T01:48:51.448Z,100517.47
2023-03-26T01:51:32.626Z,100506.81
2023-03-26T01:54:00.128Z,100512.16
2023-03-26T01:56:35.702Z,100518.34
2023-03-26T01:59:20.361Z,100513.97
2023-03-26T02:02:04.896Z,100508.63
2023-03-26T02:04:42.979Z,100506.03
2023-03-26T02:07:20.934Z,100496.19
2023-03-26T02:09:49.982Z,100493.50
2023-03-26T02:12:17.136Z,100490.84
2023-03-26T02:14:47.326Z,100481.06
2023-03-26T02:17:13.888Z,100484.59
2023-03-26T02:19:43.271Z,100480.19
2023-03-26T02:22:15.871Z,100476.72
2023-03-26T02:24:43.284Z,100480.16
2023-03-26T02:27:12.365Z,100478.41
2023-03-26T02:29:42.612Z,100478.38
2023-03-26T02:32:13.279Z,100474.84
2023-03-26T02:34:41.856Z,100473.91
2023-03-26T02:37:09.494Z,100468.69
2023-03-26T02:39:36.353Z,100473.06
2023-03-26T02:42:03.017Z,100465.06
2023-03-26T02:44:29.600Z,100461.47
2023-03-26T02:46:56.983Z,100465.13
2023-03-26T02:49:23.536Z,100468.63
2023-03-26T02:51:50.792Z,100464.13
2023-03-26T02:54:18.258Z,100465.97
2023-03-26T02:56:44.856Z,100469.50
2023-03-26T02:59:12.213Z,100464.28
2023-03-26T03:01:42.807Z,100469.50
2023-03-26T03:04:10.618Z,100466.81
2023-03-26T03:06:38.443Z,100456.19
2023-03-26T03:09:06.711Z,100451.78
2023-03-26T03:11:34.110Z,100455.34
2023-03-26T03:14:00.695Z,100456.16
2023-03-26T03:16:27.717Z,100457.19
2023-03-26T03:18:57.450Z,100456.28
2023-03-26T03:21:27.034Z,100448.22
2023-03-26T03:23:54.773Z,100448.22
2023-03-26T03:26:23.310Z,100455.38
2023-03-26T03:28:50.074Z,100453.59
2023-03-26T03:31:17.681Z,100458.91
2023-03-26T03:33:46.308Z,100455.44
2023-03-26T03:36:23.918Z,100461.63
2023-03-26T03:38:50.848Z,100452.72
2023-03-26T03:41:18.722Z,100451.81
2023-03-26T03:43:47.502Z,100453.59
2023-03-26T03:46:14.096Z,100448.31
2023-03-26T03:48:41.049Z,100459.91
2023-03-26T03:51:07.589Z,100453.59
2023-03-26T03:53:37.291Z,100457.25
2023-03-26T03:56:04.570Z,100457.25
2023-03-26T03:58:31.207Z,100452.81
2023-03-26T04:01:00.846Z,100456.44
2023-03-26T04:03:33.670Z,100451.81
2023-03-26T04:06:00.917Z,100451.91
2023-03-26T04:08:27.442Z,100457.28
2023-03-26T04:10:54.008Z,100458.94
2023-03-26T04:13:20.677Z,100452.88
2023-03-26T04:15:47.419Z,100446.59
2023-03-26T04:18:14.291Z,100454.59
2023-03-26T04:20:46.560Z,100455.53
2023-03-26T04:23:14.340Z,100460.88
2023-03-26T04:25:42.747Z,100455.56
2023-03-26T04:28:14.262Z,100450.22
2023-03-26T04:30:42.406Z,100450.13
2023-03-26T04:33:10.530Z,100455.53
2023-03-26T04:35:37.163Z,100455.56
2023-03-26T04:38:06.492Z,100449.25
2023-03-26T04:40:39.114Z,100459.09
2023-03-26T04:43:06.377Z,100454.78
2023-03-26T04:45:32.949Z,100452.00
2023-03-26T04:47:59.764Z,100452.91
2023-03-26T04:50:26.823Z,100462.63
2023-03-26T04:52:54.859Z,100448.44
2023-03-26T04:55:25.494Z,100443.09
2023-03-26T04:57:56.491Z,100446.66
2023-03-26T05:00:23.403Z,100453.69
2023-03-26T05:02:50.539Z,100448.44
2023-03-26T05:05:17.814Z,100437.63
2023-03-26T05:07:45.403Z,100436.03
2023-03-26T05:10:14.487Z,100433.34
2023-03-26T05:12:41.750Z,100442.22
2023-03-26T05:15:09.643Z,100444.88
2023-03-26T05:17:41.438Z,100452.06
2023-03-26T05:20:31.753Z,100452.94
2023-03-26T05:22:58.334Z,100448.44
2023-03-26T05:25:25.036Z,100454.69
2023-03-26T05:27:51.664Z,100443.16
2023-03-26T05:30:20.414Z,100444.13
2023-03-26T05:32:48.831Z,100437.75
2023-03-26T05:35:17.261Z,100445.81
2023-03-26T05:37:45.445Z,100435.09
2023-03-26T05:40:14.740Z,100448.44
2023-03-26T05:42:41.749Z,100439.53
2023-03-26T05:45:09.918Z,100434.28
2023-03-26T05:47:36.554Z,100441.34
2023-03-26T05:50:03.696Z,100440.41
2023-03-26T05:52:30.253Z,100437.75
2023-03-26T05:54:56.807Z,100444.91
2023-03-26T05:57:24.000Z,100437.81
2023-03-26T05:59:50.819Z,100448.53
2023-03-26T06:02:17.414Z,100438.72
2023-03-26T06:04:45.810Z,100438.69
2023-03-26T06:07:12.685Z,100435.97
2023-03-26T06:09:39.819Z,100434.28
2023-03-26T06:12:07.398Z,100429.78
2023-03-26T06:14:33.955Z,100432.47
2023-03-26T06:17:00.708Z,100431.56
2023-03-26T06:19:27.258Z,100425.38
2023-03-26T06:21:53.938Z,100418.25
2023-03-26T06:24:20.714Z,100425.34
2023-03-26T06:26:48.504Z,100424.50
2023-03-26T06:29:15.468Z,100425.34
2023-03-26T06:31:42.105Z,100421.81
2023-03-26T06:34:08.703Z,100426.19
2023-03-26T06:36:35.489Z,100420.00
2023-03-26T06:39:02.055Z,100432.47
2023-03-26T06:41:35.252Z,100435.13
2023-03-26T06:46:44.862Z,100435.97
2023-03-26T06:49:11.515Z,100435.97
2023-03-26T06:51:40.651Z,100442.22
2023-03-26T06:54:07.310Z,100436.03
2023-03-26T06:56:33.897Z,100439.66
2023-03-26T06:59:00.625Z,100434.19
2023-03-26T07:01:27.213Z,100437.75
2023-03-26T07:03:53.835Z,100434.19
2023-03-26T07:06:20.531Z,100439.53
2023-03-26T07:08:47.238Z,100431.50
2023-03-26T07:11:13.988Z,100441.31
2023-03-26T07:13:40.867Z,100431.53
2023-03-26T07:16:07.695Z,100433.25
2023-03-26T07:18:34.313Z,100432.41
2023-03-26T07:21:01.410Z,100434.16
2023-03-26T07:23:28.257Z,100434.16
2023-03-26T07:25:55.577Z,100441.31
2023-03-26T07:29:03.994Z,100430.63
2023-03-26T07:31:50.050Z,100439.50
2023-03-26T07:34:21.335Z,100434.19
2023-03-26T07:36:57.074Z,100438.66
2023-03-26T07:39:41.676Z,100437.75
2023-03-26T07:42:17.099Z,100435.91
2023-03-26T07:44:52.817Z,100437.66
2023-03-26T07:47:27.951Z,100441.22
2023-03-26T07:49:55.890Z,100434.06
2023-03-26T07:52:23.068Z,100432.28
2023-03-26T07:54:50.043Z,100430.56
2023-03-26T07:57:40.617Z,100427.88
2023-03-26T08:00:15.194Z,100435.81
2023-03-26T08:03:01.635Z,100425.22
2023-03-26T08:05:48.014Z,100426.19
2023-03-26T08:08:20.758Z,100429.63
2023-03-26T08:10:59.481Z,100427.00
2023-03-26T08:13:49.200Z,100427.84
2023-03-26T08:16:27.662Z,100428.81
2023-03-26T08:19:24.350Z,100441.22
2023-03-26T08:21:59.939Z,100430.53
2023-03-26T08:24:36.754Z,100439.41
2023-03-26T08:27:23.557Z,100434.97
2023-03-26T08:30:01.635Z,100432.22
2023-03-26T08:32:28.528Z,100440.25
2023-03-26T08:34:57.498Z,100432.19
2023-03-26T08:37:24.118Z,100437.50
2023-03-26T08:39:50.876Z,100441.91
2023-03-26T08:42:17.373Z,100450.00
2023-03-26T08:44:47.687Z,100451.69
2023-03-26T08:47:29.258Z,100450.69
2023-03-26T08:50:21.707Z,100453.31
2023-03-26T08:52:56.228Z,100454.16
2023-03-26T08:55:38.273Z,100447.72
2023-03-26T08:58:29.715Z,100447.69
2023-03-26T09:01:17.895Z,100449.41
2023-03-26T09:04:02.978Z,100448.41
2023-03-26T09:06:48.141Z,100446.53
2023-03-26T09:09:31.967Z,100447.19
2023-03-26T09:12:06.318Z,100448.94
2023-03-26T09:15:04.705Z,100452.59
2023-03-26T09:17:44.665Z,100450.88
2023-03-26T09:20:53.555Z,100462.53
2023-03-26T09:23:52.868Z,100458.91
2023-03-26T09:26:29.967Z,100463.34
2023-03-26T09:29:02.153Z,100463.34
2023-03-26T09:32:05.453Z,100469.63
2023-03-26T09:34:53.789Z,100469.59
2023-03-26T09:37:29.063Z,100470.50
2023-03-26T09:40:05.356Z,100467.03
2023-03-26T09:42:40.509Z,100472.28
2023-03-26T09:45:10.626Z,100477.69
2023-03-26T09:48:18.917Z,100483.84
2023-03-26T09:50:57.025Z,100474.50
2023-03-26T09:54:15.130Z,100480.47
2023-03-26T09:57:06.409Z,100482.16
2023-03-26T10:00:18.005Z,100488.09
2023-03-26T10:03:14.338Z,100482.28
2023-03-26T10:05:56.842Z,100495.53
2023-03-26T10:08:28.795Z,100493.53
2023-03-26T10:11:08.201Z,100493.41
2023-03-26T10:14:01.410Z,100487.84
2023-03-26T10:16:56.110Z,100494.13
2023-03-26T10:19:53.747Z,100496.59
2023-03-26T10:22:48.004Z,100492.81
2023-03-26T10:25:40.894Z,100499.94
2023-03-26T10:28:07.371Z,100501.75
2023-03-26T10:30:58.990Z,100505.34
2023-03-26T10:33:50.206Z,100495.59
2023-03-26T10:36:37.260Z,100499.19
2023-03-26T10:39:37.883Z,100503.56
2023-03-26T10:42:24.081Z,100506.34
2023-03-26T10:45:32.039Z,100509.09
2023-03-26T10:48:12.431Z,100503.72
2023-03-26T10:50:45.036Z,100504.63
2023-03-26T10:53:13.870Z,100502.06
2023-03-26T10:55:45.409Z,100510.91
2023-03-26T10:58:17.692Z,100508.31
2023-03-26T11:00:51.329Z,100501.25
2023-03-26T11:03:45.349Z,100507.50
2023-03-26T11:06:14.568Z,100506.59
2023-03-26T11:08:48.633Z,100516.44
2023-03-26T11:11:15.426Z,100506.75
2023-03-26T11:14:16.789Z,100521.94
2023-03-26T11:17:00.190Z,100519.28
2023-03-26T11:19:53.202Z,100524.78
2023-03-26T11:22:50.763Z,100518.59
2023-03-26T11:25:44.122Z,100520.41
2023-03-26T11:28:38.184Z,100531.19
2023-03-26T11:31:09.479Z,100533.97
2023-03-26T11:33:38.120Z,100534.81
2023-03-26T11:36:14.242Z,100533.13
2023-03-26T11:38:49.866Z,100541.09
2023-03-26T11:41:23.308Z,100542.06
2023-03-26T11:43:59.129Z,100543.81
2023-03-26T11:46:26.824Z,100530.00
2023-03-26T11:48:57.631Z,100542.47
2023-03-26T11:51:35.701Z,100537.22
2023-03-26T11:54:03.592Z,100539.72
2023-03-26T11:57:04.792Z,100541.63
2023-03-26T11:59:53.180Z,100534.44
2023-03-26T12:02:35.780Z,100532.66
2023-03-26T12:05:21.702Z,100538.03
2023-03-26T12:07:59.884Z,100550.69
2023-03-26T12:10:28.999Z,100545.38
2023-03-26T12:12:58.521Z,100554.16
2023-03-26T12:15:25.678Z,100563.19
2023-03-26T12:17:58.022Z,100559.38
2023-03-26T12:20:27.725Z,100562.06
2023-03-26T12:22:59.160Z,100548.66
2023-03-26T12:25:28.065Z,100560.31
2023-03-26T12:28:04.881Z,100555.91
2023-03-26T12:30:37.317Z,100560.31
2023-03-26T12:33:16.252Z,100559.50
2023-03-26T12:35:43.677Z,100570.31
2023-03-26T12:38:24.848Z,100565.84
2023-03-26T12:42:25.937Z,100573.81
2023-03-26T12:44:55.725Z,100577.38
2023-03-26T12:47:57.979Z,100574.53
2023-03-26T12:50:04.332Z,100579.13
2023-03-26T12:53:05.080Z,100581.69
2023-03-26T12:55:42.834Z,100576.31
2023-03-26T12:58:51.107Z,100587.94
2023-03-26T13:01:54.568Z,100584.28
2023-03-26T13:04:30.154Z,100593.25
2023-03-26T13:07:06.472Z,100602.22
2023-03-26T13:09:45.080Z,100591.66
2023-03-26T13:12:23.099Z,100598.41
2023-03-26T13:14:52.504Z,100584.88
2023-03-26T13:17:26.927Z,100588.38
2023-03-26T13:20:38.294Z,100598.16
2023-03-26T13:23:40.033Z,100605.44
2023-03-26T13:26:46.811Z,100610.13
2023-03-26T13:29:38.167Z,100610.13
2023-03-26T13:32:25.933Z,100610.94
2023-03-26T13:35:10.740Z,100610.91
2023-03-26T13:37:43.905Z,100617.06
2023-03-26T13:40:10.413Z,100620.66
2023-03-26T13:42:49.565Z,100616.41
2023-03-26T13:45:37.879Z,100618.97
2023-03-26T13:48:06.022Z,100623.38
2023-03-26T13:50:39.754Z,100620.44
2023-03-26T13:53:32.777Z,100626.84
2023-03-26T13:55:59.933Z,100621.47
2023-03-26T13:58:47.503Z,100625.16
2023-03-26T14:01:18.138Z,100626.94
2023-03-26T14:04:08.824Z,100630.56
2023-03-26T14:06:53.955Z,100630.63
2023-03-26T14:09:26.408Z,100623.25
2023-03-26T14:11:56.822Z,100624.75
2023-03-26T14:14:53.203Z,100629.03
2023-03-26T14:17:31.285Z,100632.38
2023-03-26T14:20:27.996Z,100631.03
2023-03-26T14:23:00.261Z,100635.44
2023-03-26T14:25:36.006Z,100644.28
2023-03-26T14:28:20.097Z,100642.66
2023-03-26T14:30:56.436Z,100644.44
2023-03-26T14:33:49.838Z,100646.84
2023-03-26T14:36:25.951Z,100653.19
2023-03-26T14:39:31.992Z,100664.63
2023-03-26T14:42:24.983Z,100661.19
2023-03-26T14:45:05.875Z,100660.38
2023-03-26T14:47:37.686Z,100661.31
2023-03-26T14:50:26.576Z,100666.72
2023-03-26T14:53:01.172Z,100667.63
2023-03-26T14:55:54.804Z,100680.19
2023-03-26T14:58:42.795Z,100682.03
2023-03-26T15:01:22.335Z,100687.44
2023-03-26T15:04:16.660Z,100690.06
2023-03-26T15:06:54.994Z,100689.16
2023-03-26T15:09:40.413Z,100683.81
2023-03-26T15:12:16.171Z,100685.53
2023-03-26T15:14:51.426Z,100690.84
2023-03-26T15:17:55.389Z,100694.31
2023-03-26T15:20:40.698Z,100701.56
2023-03-26T15:23:38.201Z,100705.13
2023-03-26T15:26:30.620Z,100706.88
2023-03-26T15:29:25.052Z,100713.16
2023-03-26T15:32:22.247Z,100718.66
2023-03-26T15:34:51.727Z,100717.72
2023-03-26T15:37:39.770Z,100723.16
2023-03-26T15:40:29.317Z,100730.28
2023-03-26T15:43:11.799Z,100733.91
2023-03-26T15:45:39.892Z,100733.91
2023-03-26T15:48:12.663Z,100740.88
2023-03-26T15:50:59.901Z,100735.59
2023-03-26T15:53:33.901Z,100742.78
2023-03-26T15:56:08.936Z,100746.28
2023-03-26T15:59:00.053Z,100743.59
2023-03-26T16:01:51.494Z,100753.50
2023-03-26T16:04:23.055Z,100758.94
2023-03-26T16:07:09.471Z,100766.06
2023-03-26T16:10:02.298Z,100764.38
2023-03-26T16:12:47.606Z,100767.94
2023-03-26T16:15:24.183Z,100757.22
2023-03-26T16:18:12.305Z,100774.13
2023-03-26T16:20:54.256Z,100784.00
2023-03-26T16:23:48.176Z,100784.06
2023-03-26T16:26:45.518Z,100785.81
2023-03-26T16:29:22.246Z,100780.59
2023-03-26T16:32:04.543Z,100803.72
2023-03-26T16:34:50.839Z,100800.09
2023-03-26T16:37:45.896Z,100795.72
2023-03-26T16:40:21.424Z,100799.38
2023-03-26T16:43:12.639Z,100801.03
2023-03-26T16:46:17.046Z,100793.13
2023-03-26T16:49:07.654Z,100809.16
2023-03-26T16:51:40.330Z,100810.97
2023-03-26T16:54:13.042Z,100820.81
2023-03-26T16:56:53.693Z,100832.41
2023-03-26T16:59:37.871Z,100833.31
2023-03-26T17:02:17.013Z,100830.63
2023-03-26T17:04:46.615Z,100830.63
2023-03-26T17:07:22.835Z,100843.16
2023-03-26T17:10:08.800Z,100844.94
2023-03-26T17:12:43.032Z,100857.47
2023-03-26T17:15:36.445Z,100861.03
2023-03-26T17:18:03.013Z,100858.38
2023-03-26T17:20:36.787Z,100875.38
2023-03-26T17:23:18.748Z,100884.38
2023-03-26T17:26:26.639Z,100882.59
2023-03-26T17:29:01.902Z,100894.22
2023-03-26T17:31:38.343Z,100881.69
2023-03-26T17:34:49.368Z,100899.63
2023-03-26T17:37:22.031Z,100896.94
2023-03-26T17:39:57.589Z,100902.38
2023-03-26T17:42:27.777Z,100906.81
2023-03-26T17:44:55.760Z,100910.34
2023-03-26T17:47:28.372Z,100911.28
2023-03-26T17:50:13.940Z,100915.72
2023-03-26T17:52:57.823Z,100916.69
2023-03-26T17:55:33.069Z,100925.59
2023-03-26T17:58:01.741Z,100928.31
2023-03-26T18:00:41.793Z,100930.84
2023-03-26T18:03:20.378Z,100938.75
2023-03-26T18:05:47.941Z,100936.03
2023-03-26T18:08:39.155Z,100944.81
2023-03-26T18:11:33.147Z,100950.09
2023-03-26T18:13:59.522Z,100954.53
2023-03-26T18:16:38.833Z,100952.41
2023-03-26T18:19:19.060Z,100962.25
2023-03-26T18:21:50.179Z,100972.97
2023-03-26T18:24:27.652Z,100967.47
2023-03-26T18:26:58.352Z,100979.19
2023-03-26T18:29:33.645Z,100975.50
2023-03-26T18:32:09.370Z,100970.94
2023-03-26T18:34:39.513Z,100982.72
2023-03-26T18:37:17.792Z,100980.88
2023-03-26T18:40:10.198Z,100987.25
2023-03-26T18:42:37.275Z,100997.16
2023-03-26T18:45:08.505Z,100992.75
2023-03-26T18:47:38.104Z,100994.56
2023-03-26T18:50:05.261Z,100999.06
2023-03-26T18:52:32.223Z,100999.16
2023-03-26T18:54:59.444Z,101003.69
2023-03-26T18:57:28.219Z,101005.47
2023-03-26T18:59:57.033Z,101012.72
2023-03-26T19:02:25.458Z,101014.50
2023-03-26T19:04:54.353Z,101023.47
2023-03-26T19:07:25.948Z,101024.41
2023-03-26T19:09:56.225Z,101027.13
2023-03-26T19:12:32.535Z,101035.97
2023-03-26T19:15:07.814Z,101037.00
2023-03-26T19:17:40.161Z,101034.34
2023-03-26T19:20:13.802Z,101034.44
2023-03-26T19:22:42.302Z,101033.69
2023-03-26T19:25:34.456Z,101029.34
2023-03-26T19:28:01.126Z,101031.06
2023-03-26T19:30:30.828Z,101035.69
2023-03-26T19:33:13.255Z,101034.84
2023-03-26T19:35:42.408Z,101034.81
2023-03-26T19:38:27.141Z,101041.13
2023-03-26T19:40:57.599Z,101038.38
2023-03-26T19:43:25.599Z,101040.25
2023-03-26T19:45:59.606Z,101049.09
2023-03-26T19:48:46.247Z,101047.38
2023-03-26T19:51:20.127Z,101053.78
2023-03-26T19:53:49.764Z,101056.41
2023-03-26T19:56:18.668Z,101062.59
2023-03-26T19:58:45.299Z,101069.78
2023-03-26T20:01:20.153Z,101069.00
2023-03-26T20:03:48.520Z,101066.31
2023-03-26T20:06:17.909Z,101077.94
2023-03-26T20:08:44.482Z,101081.56
2023-03-26T20:11:20.662Z,101083.31
2023-03-26T20:13:47.752Z,101086.91
2023-03-26T20:16:27.923Z,101083.41
2023-03-26T20:18:57.314Z,101100.44
2023-03-26T20:21:25.204Z,101087.00
2023-03-26T20:23:55.275Z,101095.97
2023-03-26T20:26:23.597Z,101091.50
2023-03-26T20:28:53.419Z,101103.06
2023-03-26T20:31:24.365Z,101097.66
2023-03-26T20:33:52.012Z,101111.94
2023-03-26T20:36:33.687Z,101112.00
2023-03-26T20:39:03.035Z,101111.94
2023-03-26T20:41:29.613Z,101113.78
2023-03-26T20:43:56.925Z,101127.22
2023-03-26T20:46:30.833Z,101127.19
2023-03-26T20:48:58.068Z,101126.34
2023-03-26T20:51:24.622Z,101134.31
2023-03-26T20:53:51.239Z,101133.53
2023-03-26T20:56:19.246Z,101137.09
2023-03-26T20:58:50.572Z,101138.03
2023-03-26T21:01:20.561Z,101146.03
2023-03-26T21:03:47.214Z,101144.28
2023-03-26T21:06:13.777Z,101141.56
2023-03-26T21:08:44.516Z,101146.09
2023-03-26T21:11:26.694Z,101150.59
2023-03-26T21:14:03.658Z,101146.94
2023-03-26T21:16:30.559Z,101154.19
2023-03-26T21:18:57.720Z,101148.81
2023-03-26T21:21:52.764Z,101155.09
2023-03-26T21:24:19.308Z,101151.50
2023-03-26T21:27:26.533Z,101159.56
2023-03-26T21:29:54.558Z,101152.44
2023-03-26T21:32:22.630Z,101164.94
2023-03-26T21:34:58.536Z,101164.09
2023-03-26T21:37:26.476Z,101165.03
2023-03-26T21:39:53.251Z,101177.53
2023-03-26T21:42:20.122Z,101177.47
2023-03-26T21:44:46.914Z,101182.00
2023-03-26T21:47:14.113Z,101180.25
2023-03-26T21:49:41.260Z,101187.38
2023-03-26T21:52:15.126Z,101196.28
2023-03-26T21:54:43.187Z,101194.47
2023-03-26T21:57:23.217Z,101199.84
2023-03-26T22:02:49.921Z,101205.97
2023-03-26T22:05:19.150Z,101202.53
2023-03-26T22:07:58.071Z,101213.19
2023-03-26T22:10:24.950Z,101217.63
2023-03-26T22:12:51.906Z,101222.22
2023-03-26T22:15:19.036Z,101232.06
2023-03-26T22:17:55.604Z,101222.22
2023-03-26T22:20:25.037Z,101233.84
2023-03-26T22:22:53.368Z,101223.22
2023-03-26T22:25:20.866Z,101233.88
2023-03-26T22:27:47.907Z,101239.25
2023-03-26T22:30:15.551Z,101236.56
2023-03-26T22:32:43.441Z,101248.16
2023-03-26T22:35:10.377Z,101245.47
2023-03-26T22:37:37.805Z,101244.59
2023-03-26T22:40:08.338Z,101244.59
2023-03-26T22:42:36.199Z,101253.53
2023-03-26T22:45:04.088Z,101254.41
2023-03-26T22:47:33.789Z,101248.13
2023-03-26T22:50:00.667Z,101249.94
2023-03-26T22:52:28.647Z,101263.28
2023-03-26T22:54:55.269Z,101261.50
2023-03-26T22:57:22.793Z,101269.50
2023-03-26T22:59:49.366Z,101275.78
2023-03-26T23:02:22.213Z,101282.00
2023-03-26T23:04:49.680Z,101289.13
2023-03-26T23:07:16.323Z,101284.66
2023-03-26T23:09:43.004Z,101290.91
2023-03-26T23:12:09.620Z,101294.47
2023-03-26T23:14:36.266Z,101298.91
2023-03-26T23:17:02.862Z,101296.22
2023-03-26T23:19:30.186Z,101304.28
2023-03-26T23:21:57.508Z,101313.19
2023-03-26T23:24:26.439Z,101311.41
2023-03-26T23:26:53.273Z,101316.75
2023-03-26T23:29:19.892Z,101326.53
2023-03-26T23:31:46.580Z,101328.31
2023-03-26T23:34:13.561Z,101316.72
2023-03-26T23:36:40.904Z,101319.41
2023-03-26T23:39:09.260Z,101331.88
2023-03-26T23:41:36.738Z,101332.78
2023-03-26T23:44:03.860Z,101335.44
2023-03-26T23:46:33.123Z,101328.31
2023-03-26T23:49:02.589Z,101344.38
2023-03-26T23:51:30.406Z,101345.25
2023-03-26T23:53:57.160Z,101339.00
2023-03-26T23:56:23.745Z,101355.03
2023-03-26T23:58:50.288Z,101354.16
